sensor_id;sensor_type;location;lat;lon;timestamp;pressure;altitude;pressure_sealevel;temperature;humidity
20023;BME280;10172;42.054;24.546;2022-10-31T00:00:56;98426.22;;;18.39;62.82
20023;BME280;10172;42.054;24.546;2022-10-31T00:03:22;98426.69;;;18.35;62.63
20023;BME280;10172;42.054;24.546;2022-10-31T00:05:49;98435.53;;;18.55;62.72
20023;BME280;10172;42.054;24.546;2022-10-31T00:08:18;98431.63;;;18.49;61.98
20023;BME280;10172;42.054;24.546;2022-10-31T00:10:44;98437.50;;;18.25;62.49
20023;BME280;10172;42.054;24.546;2022-10-31T00:13:11;98434.97;;;18.24;62.39
20023;BME280;10172;42.054;24.546;2022-10-31T00:15:39;98432.56;;;17.74;64.73
20023;BME280;10172;42.054;24.546;2022-10-31T00:18:06;98431.50;;;18.41;61.96
20023;BME280;10172;42.054;24.546;2022-10-31T00:20:31;98433.00;;;18.80;60.54
20023;BME280;10172;42.054;24.546;2022-10-31T00:22:58;98429.88;;;17.17;67.32
20023;BME280;10172;42.054;24.546;2022-10-31T00:25:24;98426.75;;;16.83;69.96
20023;BME280;10172;42.054;24.546;2022-10-31T00:27:49;98434.94;;;16.72;71.15
20023;BME280;10172;42.054;24.546;2022-10-31T00:30:15;98427.94;;;17.19;68.63
20023;BME280;10172;42.054;24.546;2022-10-31T00:32:40;98438.38;;;17.41;67.33
20023;BME280;10172;42.054;24.546;2022-10-31T00:35:06;98429.59;;;17.20;68.39
20023;BME280;10172;42.054;24.546;2022-10-31T00:37:31;98421.63;;;16.61;71.69
20023;BME280;10172;42.054;24.546;2022-10-31T00:39:57;98426.06;;;16.91;69.95
20023;BME280;10172;42.054;24.546;2022-10-31T00:42:22;98421.53;;;17.01;69.54
20023;BME280;10172;42.054;24.546;2022-10-31T00:44:48;98421.53;;;17.49;66.53
20023;BME280;10172;42.054;24.546;2022-10-31T00:47:13;98429.91;;;17.55;66.11
20023;BME280;10172;42.054;24.546;2022-10-31T00:49:39;98428.31;;;17.53;66.61
20023;BME280;10172;42.054;24.546;2022-10-31T00:52:04;98428.09;;;17.92;64.11
20023;BME280;10172;42.054;24.546;2022-10-31T00:54:29;98425.66;;;18.09;63.66
20023;BME280;10172;42.054;24.546;2022-10-31T00:56:56;98427.16;;;18.21;62.82
20023;BME280;10172;42.054;24.546;2022-10-31T00:59:22;98421.31;;;18.25;62.54
20023;BME280;10172;42.054;24.546;2022-10-31T01:01:47;98425.28;;;17.94;64.72
20023;BME280;10172;42.054;24.546;2022-10-31T01:04:13;98416.97;;;18.24;62.35
20023;BME280;10172;42.054;24.546;2022-10-31T01:06:38;98431.06;;;17.99;64.24
20023;BME280;10172;42.054;24.546;2022-10-31T01:09:03;98431.34;;;18.06;64.71
20023;BME280;10172;42.054;24.546;2022-10-31T01:11:29;98430.44;;;18.24;63.71
20023;BME280;10172;42.054;24.546;2022-10-31T01:13:54;98432.56;;;17.84;65.16
20023;BME280;10172;42.054;24.546;2022-10-31T01:16:23;98439.22;;;18.17;62.94
20023;BME280;10172;42.054;24.546;2022-10-31T01:18:48;98436.47;;;18.63;60.40
20023;BME280;10172;42.054;24.546;2022-10-31T01:21:25;98422.06;;;18.55;59.96
20023;BME280;10172;42.054;24.546;2022-10-31T01:23:55;98440.50;;;18.59;60.00
20023;BME280;10172;42.054;24.546;2022-10-31T01:26:26;98426.78;;;18.43;60.08
20023;BME280;10172;42.054;24.546;2022-10-31T01:28:54;98439.28;;;18.71;58.94
20023;BME280;10172;42.054;24.546;2022-10-31T01:31:22;98439.25;;;18.98;58.22
20023;BME280;10172;42.054;24.546;2022-10-31T01:33:48;98409.06;;;19.13;57.59
20023;BME280;10172;42.054;24.546;2022-10-31T01:36:32;98419.13;;;18.93;58.69
20023;BME280;10172;42.054;24.546;2022-10-31T01:39:00;98425.53;;;18.37;61.47
20023;BME280;10172;42.054;24.546;2022-10-31T01:41:28;98415.84;;;18.44;61.54
20023;BME280;10172;42.054;24.546;2022-10-31T01:46:31;98423.44;;;19.03;58.06
20023;BME280;10172;42.054;24.546;2022-10-31T01:49:00;98430.03;;;19.19;57.02
20023;BME280;10172;42.054;24.546;2022-10-31T01:51:33;98429.53;;;19.23;57.34
20023;BME280;10172;42.054;24.546;2022-10-31T01:54:03;98427.19;;;19.38;56.33
20023;BME280;10172;42.054;24.546;2022-10-31T01:56:30;98433.97;;;19.59;56.06
20023;BME280;10172;42.054;24.546;2022-10-31T01:58:57;98425.75;;;19.34;56.34
20023;BME280;10172;42.054;24.546;2022-10-31T02:01:25;98429.00;;;19.55;55.99
20023;BME280;10172;42.054;24.546;2022-10-31T02:03:51;98424.31;;;19.83;54.92
20023;BME280;10172;42.054;24.546;2022-10-31T02:06:46;98425.94;;;19.50;56.08
20023;BME280;10172;42.054;24.546;2022-10-31T02:09:12;98414.97;;;19.34;57.04
20023;BME280;10172;42.054;24.546;2022-10-31T02:11:38;98431.78;;;19.28;57.25
20023;BME280;10172;42.054;24.546;2022-10-31T02:14:04;98433.03;;;19.16;57.51
20023;BME280;10172;42.054;24.546;2022-10-31T02:16:29;98427.22;;;19.28;56.80
20023;BME280;10172;42.054;24.546;2022-10-31T02:18:55;98421.81;;;19.63;55.61
20023;BME280;10172;42.054;24.546;2022-10-31T02:21:37;98425.31;;;19.56;55.58
20023;BME280;10172;42.054;24.546;2022-10-31T02:24:32;98418.53;;;19.17;56.98
20023;BME280;10172;42.054;24.546;2022-10-31T02:32:27;98422.00;;;19.62;55.65
20023;BME280;10172;42.054;24.546;2022-10-31T02:35:11;98424.19;;;19.41;56.78
20023;BME280;10172;42.054;24.546;2022-10-31T02:40:25;98427.53;;;19.60;56.48
20023;BME280;10172;42.054;24.546;2022-10-31T02:43:13;98432.13;;;19.68;56.82
20023;BME280;10172;42.054;24.546;2022-10-31T02:45:48;98438.13;;;19.80;55.49
20023;BME280;10172;42.054;24.546;2022-10-31T02:48:23;98436.47;;;19.26;57.88
20023;BME280;10172;42.054;24.546;2022-10-31T02:50:54;98440.81;;;19.54;56.30
20023;BME280;10172;42.054;24.546;2022-10-31T02:53:21;98431.41;;;19.58;56.37
20023;BME280;10172;42.054;24.546;2022-10-31T02:58:39;98429.66;;;19.49;56.32
20023;BME280;10172;42.054;24.546;2022-10-31T03:06:57;98441.06;;;19.43;56.55
20023;BME280;10172;42.054;24.546;2022-10-31T03:09:47;98441.06;;;19.86;55.35
20023;BME280;10172;42.054;24.546;2022-10-31T03:12:47;98437.16;;;19.63;55.66
20023;BME280;10172;42.054;24.546;2022-10-31T03:15:19;98445.25;;;19.81;55.25
20023;BME280;10172;42.054;24.546;2022-10-31T03:20:22;98450.59;;;19.55;55.89
20023;BME280;10172;42.054;24.546;2022-10-31T03:22:49;98449.44;;;19.57;55.60
20023;BME280;10172;42.054;24.546;2022-10-31T03:25:16;98453.72;;;19.68;55.58
20023;BME280;10172;42.054;24.546;2022-10-31T03:27:43;98436.47;;;19.79;55.18
20023;BME280;10172;42.054;24.546;2022-10-31T03:30:09;98445.94;;;20.08;54.43
20023;BME280;10172;42.054;24.546;2022-10-31T03:32:52;98440.81;;;19.97;55.04
20023;BME280;10172;42.054;24.546;2022-10-31T03:35:22;98447.28;;;19.61;56.56
20023;BME280;10172;42.054;24.546;2022-10-31T03:37:49;98452.31;;;19.56;56.01
20023;BME280;10172;42.054;24.546;2022-10-31T03:40:16;98451.88;;;19.33;56.57
20023;BME280;10172;42.054;24.546;2022-10-31T03:42:50;98459.72;;;19.54;56.36
20023;BME280;10172;42.054;24.546;2022-10-31T03:45:24;98454.78;;;20.18;54.78
20023;BME280;10172;42.054;24.546;2022-10-31T03:47:52;98449.16;;;20.12;54.72
20023;BME280;10172;42.054;24.546;2022-10-31T03:50:19;98452.19;;;19.83;55.55
20023;BME280;10172;42.054;24.546;2022-10-31T03:53:07;98452.44;;;20.23;53.98
20023;BME280;10172;42.054;24.546;2022-10-31T03:55:56;98447.16;;;20.14;54.42
20023;BME280;10172;42.054;24.546;2022-10-31T03:58:28;98455.31;;;20.22;54.44
20023;BME280;10172;42.054;24.546;2022-10-31T04:00:57;98444.50;;;20.48;53.18
20023;BME280;10172;42.054;24.546;2022-10-31T04:03:28;98457.19;;;20.55;53.00
20023;BME280;10172;42.054;24.546;2022-10-31T04:05:56;98471.63;;;19.87;55.07
20023;BME280;10172;42.054;24.546;2022-10-31T04:08:26;98466.00;;;19.80;55.16
20023;BME280;10172;42.054;24.546;2022-10-31T04:10:56;98468.06;;;19.68;55.95
20023;BME280;10172;42.054;24.546;2022-10-31T04:13:29;98464.63;;;19.76;56.12
20023;BME280;10172;42.054;24.546;2022-10-31T04:15:56;98476.28;;;19.59;56.53
20023;BME280;10172;42.054;24.546;2022-10-31T04:18:25;98479.66;;;19.61;56.34
20023;BME280;10172;42.054;24.546;2022-10-31T04:21:02;98472.97;;;19.47;57.00
20023;BME280;10172;42.054;24.546;2022-10-31T04:23:28;98474.81;;;19.47;57.48
20023;BME280;10172;42.054;24.546;2022-10-31T04:25:54;98479.03;;;19.49;56.75
20023;BME280;10172;42.054;24.546;2022-10-31T04:28:20;98472.66;;;20.19;55.17
20023;BME280;10172;42.054;24.546;2022-10-31T04:30:45;98479.22;;;20.35;54.23
20023;BME280;10172;42.054;24.546;2022-10-31T04:33:11;98480.88;;;20.61;53.79
20023;BME280;10172;42.054;24.546;2022-10-31T04:35:36;98488.75;;;20.03;55.79
20023;BME280;10172;42.054;24.546;2022-10-31T04:38:02;98500.25;;;20.49;53.67
20023;BME280;10172;42.054;24.546;2022-10-31T04:40:27;98496.16;;;20.45;53.86
20023;BME280;10172;42.054;24.546;2022-10-31T04:42:52;98483.88;;;20.24;54.58
20023;BME280;10172;42.054;24.546;2022-10-31T04:45:18;98505.56;;;20.33;54.38
20023;BME280;10172;42.054;24.546;2022-10-31T04:47:43;98503.28;;;20.02;55.43
20023;BME280;10172;42.054;24.546;2022-10-31T04:50:09;98511.34;;;19.59;57.32
20023;BME280;10172;42.054;24.546;2022-10-31T04:52:41;98509.47;;;19.95;56.91
20023;BME280;10172;42.054;24.546;2022-10-31T04:55:08;98510.50;;;19.58;57.49
20023;BME280;10172;42.054;24.546;2022-10-31T04:57:43;98518.66;;;19.66;57.44
20023;BME280;10172;42.054;24.546;2022-10-31T05:00:10;98522.22;;;19.49;58.35
20023;BME280;10172;42.054;24.546;2022-10-31T05:02:52;98524.47;;;19.54;57.89
20023;BME280;10172;42.054;24.546;2022-10-31T05:05:22;98537.97;;;19.27;59.49
20023;BME280;10172;42.054;24.546;2022-10-31T05:07:48;98534.81;;;19.31;59.89
20023;BME280;10172;42.054;24.546;2022-10-31T05:10:17;98541.34;;;19.11;61.60
20023;BME280;10172;42.054;24.546;2022-10-31T05:12:48;98544.38;;;18.98;61.92
20023;BME280;10172;42.054;24.546;2022-10-31T05:15:13;98552.81;;;19.58;59.71
20023;BME280;10172;42.054;24.546;2022-10-31T05:17:39;98558.16;;;19.23;60.47
20023;BME280;10172;42.054;24.546;2022-10-31T05:20:05;98568.94;;;19.23;60.49
20023;BME280;10172;42.054;24.546;2022-10-31T05:22:30;98568.16;;;19.57;59.14
20023;BME280;10172;42.054;24.546;2022-10-31T05:24:56;98569.78;;;19.50;59.28
20023;BME280;10172;42.054;24.546;2022-10-31T05:27:21;98561.94;;;19.57;58.73
20023;BME280;10172;42.054;24.546;2022-10-31T05:29:47;98574.66;;;19.64;58.79
20023;BME280;10172;42.054;24.546;2022-10-31T05:32:12;98576.13;;;19.32;60.64
20023;BME280;10172;42.054;24.546;2022-10-31T05:34:37;98578.44;;;19.27;60.49
20023;BME280;10172;42.054;24.546;2022-10-31T05:37:03;98577.09;;;19.58;59.87
20023;BME280;10172;42.054;24.546;2022-10-31T05:39:28;98592.59;;;19.56;59.94
20023;BME280;10172;42.054;24.546;2022-10-31T05:41:54;98590.13;;;19.18;61.81
20023;BME280;10172;42.054;24.546;2022-10-31T05:44:19;98586.75;;;18.79;63.69
20023;BME280;10172;42.054;24.546;2022-10-31T05:46:46;98578.78;;;18.87;63.78
20023;BME280;10172;42.054;24.546;2022-10-31T05:49:12;98582.31;;;18.87;63.63
20023;BME280;10172;42.054;24.546;2022-10-31T05:51:37;98599.13;;;19.08;63.80
20023;BME280;10172;42.054;24.546;2022-10-31T05:54:03;98595.47;;;19.54;61.53
20023;BME280;10172;42.054;24.546;2022-10-31T05:56:28;98591.56;;;19.84;60.27
20023;BME280;10172;42.054;24.546;2022-10-31T05:58:54;98591.78;;;19.73;60.26
20023;BME280;10172;42.054;24.546;2022-10-31T06:01:19;98592.59;;;19.56;61.46
20023;BME280;10172;42.054;24.546;2022-10-31T06:03:44;98587.72;;;19.42;61.94
20023;BME280;10172;42.054;24.546;2022-10-31T06:06:10;98590.16;;;19.80;60.90
20023;BME280;10172;42.054;24.546;2022-10-31T06:08:36;98598.16;;;20.07;59.88
20023;BME280;10172;42.054;24.546;2022-10-31T06:11:01;98598.69;;;20.46;59.01
20023;BME280;10172;42.054;24.546;2022-10-31T06:13:27;98594.53;;;19.19;63.11
20023;BME280;10172;42.054;24.546;2022-10-31T06:15:52;98605.47;;;19.44;62.28
20023;BME280;10172;42.054;24.546;2022-10-31T06:18:17;98594.91;;;19.51;61.91
20023;BME280;10172;42.054;24.546;2022-10-31T06:20:43;98603.03;;;20.21;60.07
20023;BME280;10172;42.054;24.546;2022-10-31T06:23:08;98612.66;;;20.06;59.99
20023;BME280;10172;42.054;24.546;2022-10-31T06:25:35;98610.28;;;20.21;59.37
20023;BME280;10172;42.054;24.546;2022-10-31T06:28:00;98620.69;;;19.98;59.53
20023;BME280;10172;42.054;24.546;2022-10-31T06:30:26;98628.88;;;20.06;59.61
20023;BME280;10172;42.054;24.546;2022-10-31T06:32:52;98622.00;;;20.12;59.45
20023;BME280;10172;42.054;24.546;2022-10-31T06:35:17;98629.56;;;19.73;60.64
20023;BME280;10172;42.054;24.546;2022-10-31T06:37:50;98625.72;;;20.11;59.44
20023;BME280;10172;42.054;24.546;2022-10-31T06:40:16;98627.81;;;19.99;60.21
20023;BME280;10172;42.054;24.546;2022-10-31T06:42:41;98629.28;;;19.76;60.58
20023;BME280;10172;42.054;24.546;2022-10-31T06:45:07;98634.84;;;19.92;60.55
20023;BME280;10172;42.054;24.546;2022-10-31T06:47:32;98625.25;;;20.15;59.25
20023;BME280;10172;42.054;24.546;2022-10-31T06:49:58;98619.84;;;20.33;58.50
20023;BME280;10172;42.054;24.546;2022-10-31T06:52:23;98638.13;;;20.57;58.17
20023;BME280;10172;42.054;24.546;2022-10-31T06:54:49;98631.84;;;20.56;57.82
20023;BME280;10172;42.054;24.546;2022-10-31T06:57:14;98629.56;;;20.44;58.53
20023;BME280;10172;42.054;24.546;2022-10-31T06:59:40;98625.31;;;19.88;59.64
20023;BME280;10172;42.054;24.546;2022-10-31T07:02:08;98635.97;;;20.07;59.73
20023;BME280;10172;42.054;24.546;2022-10-31T07:04:34;98622.63;;;20.67;57.58
20023;BME280;10172;42.054;24.546;2022-10-31T07:06:59;98625.97;;;20.86;56.56
20023;BME280;10172;42.054;24.546;2022-10-31T07:09:25;98618.72;;;20.36;58.95
20023;BME280;10172;42.054;24.546;2022-10-31T07:11:52;98628.00;;;20.23;59.00
20023;BME280;10172;42.054;24.546;2022-10-31T07:14:17;98623.47;;;20.93;56.95
20023;BME280;10172;42.054;24.546;2022-10-31T07:16:42;98625.28;;;21.10;56.33
20023;BME280;10172;42.054;24.546;2022-10-31T07:19:08;98619.75;;;21.20;56.31
20023;BME280;10172;42.054;24.546;2022-10-31T07:21:33;98613.00;;;21.24;55.99
20023;BME280;10172;42.054;24.546;2022-10-31T07:23:59;98618.50;;;21.48;54.91
20023;BME280;10172;42.054;24.546;2022-10-31T07:26:24;98605.47;;;20.76;56.15
20023;BME280;10172;42.054;24.546;2022-10-31T07:28:51;98605.75;;;21.24;56.16
20023;BME280;10172;42.054;24.546;2022-10-31T07:31:16;98611.41;;;21.55;55.03
20023;BME280;10172;42.054;24.546;2022-10-31T07:33:42;98610.97;;;21.76;53.74
20023;BME280;10172;42.054;24.546;2022-10-31T07:36:07;98618.63;;;21.38;55.28
20023;BME280;10172;42.054;24.546;2022-10-31T07:38:33;98618.25;;;21.25;56.16
20023;BME280;10172;42.054;24.546;2022-10-31T07:40:58;98612.84;;;21.33;55.70
20023;BME280;10172;42.054;24.546;2022-10-31T07:43:23;98608.63;;;20.97;56.61
20023;BME280;10172;42.054;24.546;2022-10-31T07:45:53;98613.41;;;21.95;53.96
20023;BME280;10172;42.054;24.546;2022-10-31T07:48:19;98612.81;;;21.67;54.14
20023;BME280;10172;42.054;24.546;2022-10-31T07:50:45;98605.63;;;22.24;52.57
20023;BME280;10172;42.054;24.546;2022-10-31T07:53:12;98607.66;;;22.54;51.90
20023;BME280;10172;42.054;24.546;2022-10-31T07:55:38;98603.59;;;21.94;54.50
20023;BME280;10172;42.054;24.546;2022-10-31T07:58:12;98607.97;;;21.87;53.55
20023;BME280;10172;42.054;24.546;2022-10-31T08:00:39;98613.25;;;22.29;53.20
20023;BME280;10172;42.054;24.546;2022-10-31T08:03:07;98611.09;;;21.66;53.66
20023;BME280;10172;42.054;24.546;2022-10-31T08:05:34;98612.25;;;22.22;53.18
20023;BME280;10172;42.054;24.546;2022-10-31T08:07:59;98610.44;;;21.72;54.14
20023;BME280;10172;42.054;24.546;2022-10-31T08:10:26;98596.59;;;21.83;54.16
20023;BME280;10172;42.054;24.546;2022-10-31T08:12:57;98599.69;;;22.04;53.41
20023;BME280;10172;42.054;24.546;2022-10-31T08:15:23;98601.22;;;22.15;52.97
20023;BME280;10172;42.054;24.546;2022-10-31T08:17:49;98593.63;;;23.14;51.00
20023;BME280;10172;42.054;24.546;2022-10-31T08:20:14;98599.66;;;23.40;49.80
20023;BME280;10172;42.054;24.546;2022-10-31T08:22:40;98600.56;;;23.86;48.69
20023;BME280;10172;42.054;24.546;2022-10-31T08:25:07;98597.47;;;22.56;51.02
20023;BME280;10172;42.054;24.546;2022-10-31T08:27:32;98597.09;;;23.31;49.20
20023;BME280;10172;42.054;24.546;2022-10-31T08:29:58;98593.66;;;23.06;50.10
20023;BME280;10172;42.054;24.546;2022-10-31T08:32:24;98598.16;;;22.42;51.38
20023;BME280;10172;42.054;24.546;2022-10-31T08:34:49;98592.38;;;22.78;50.57
20023;BME280;10172;42.054;24.546;2022-10-31T08:37:15;98596.03;;;23.48;48.96
20023;BME280;10172;42.054;24.546;2022-10-31T08:39:46;98591.38;;;24.55;46.22
20023;BME280;10172;42.054;24.546;2022-10-31T08:42:11;98591.88;;;23.91;47.82
20023;BME280;10172;42.054;24.546;2022-10-31T08:44:36;98593.47;;;24.68;46.08
20023;BME280;10172;42.054;24.546;2022-10-31T08:47:02;98586.31;;;24.89;45.03
20023;BME280;10172;42.054;24.546;2022-10-31T08:49:27;98591.66;;;24.98;44.37
20023;BME280;10172;42.054;24.546;2022-10-31T08:51:53;98575.50;;;24.81;44.57
20023;BME280;10172;42.054;24.546;2022-10-31T08:54:18;98595.94;;;23.25;48.59
20023;BME280;10172;42.054;24.546;2022-10-31T08:56:43;98595.94;;;23.25;48.40
20023;BME280;10172;42.054;24.546;2022-10-31T08:59:09;98594.22;;;23.71;47.87
20023;BME280;10172;42.054;24.546;2022-10-31T09:01:34;98595.66;;;23.12;49.33
20023;BME280;10172;42.054;24.546;2022-10-31T09:04:00;98604.16;;;23.09;49.17
20023;BME280;10172;42.054;24.546;2022-10-31T09:06:25;98593.28;;;23.09;49.46
20023;BME280;10172;42.054;24.546;2022-10-31T09:08:51;98596.59;;;23.35;48.57
20023;BME280;10172;42.054;24.546;2022-10-31T09:11:16;98605.44;;;23.37;49.13
20023;BME280;10172;42.054;24.546;2022-10-31T09:13:42;98598.72;;;23.56;48.78
20023;BME280;10172;42.054;24.546;2022-10-31T09:16:08;98601.63;;;23.54;48.04
20023;BME280;10172;42.054;24.546;2022-10-31T09:18:34;98602.41;;;23.24;49.33
20023;BME280;10172;42.054;24.546;2022-10-31T09:21:00;98596.81;;;23.64;47.84
20023;BME280;10172;42.054;24.546;2022-10-31T09:23:26;98600.22;;;23.58;48.21
20023;BME280;10172;42.054;24.546;2022-10-31T09:25:52;98594.78;;;23.28;47.75
20023;BME280;10172;42.054;24.546;2022-10-31T09:28:23;98604.91;;;22.95;49.51
20023;BME280;10172;42.054;24.546;2022-10-31T09:30:52;98605.50;;;23.83;47.88
20023;BME280;10172;42.054;24.546;2022-10-31T09:33:21;98597.25;;;23.76;47.49
20023;BME280;10172;42.054;24.546;2022-10-31T09:35:46;98601.81;;;24.29;45.68
20023;BME280;10172;42.054;24.546;2022-10-31T09:38:17;98598.31;;;24.43;45.16
20023;BME280;10172;42.054;24.546;2022-10-31T09:40:46;98599.16;;;24.21;46.04
20023;BME280;10172;42.054;24.546;2022-10-31T09:43:34;98601.19;;;24.42;45.57
20023;BME280;10172;42.054;24.546;2022-10-31T09:46:24;98586.69;;;24.86;44.07
20023;BME280;10172;42.054;24.546;2022-10-31T09:51:44;98593.03;;;25.37;42.23
20023;BME280;10172;42.054;24.546;2022-10-31T09:54:32;98598.38;;;24.35;44.38
20023;BME280;10172;42.054;24.546;2022-10-31T09:57:00;98594.25;;;23.94;45.43
20023;BME280;10172;42.054;24.546;2022-10-31T09:59:38;98596.03;;;24.09;45.80
20023;BME280;10172;42.054;24.546;2022-10-31T10:04:46;98583.25;;;25.93;40.59
20023;BME280;10172;42.054;24.546;2022-10-31T10:07:19;98580.34;;;25.59;41.68
20023;BME280;10172;42.054;24.546;2022-10-31T10:09:47;98579.03;;;26.12;40.96
20023;BME280;10172;42.054;24.546;2022-10-31T10:15:05;98567.28;;;26.54;38.77
20023;BME280;10172;42.054;24.546;2022-10-31T10:20:31;98560.66;;;26.14;39.15
20023;BME280;10172;42.054;24.546;2022-10-31T10:23:28;98562.69;;;27.57;37.00
20023;BME280;10172;42.054;24.546;2022-10-31T10:28:38;98560.00;;;27.29;37.28
20023;BME280;10172;42.054;24.546;2022-10-31T10:31:08;98551.53;;;27.11;37.80
20023;BME280;10172;42.054;24.546;2022-10-31T10:36:20;98544.81;;;26.09;39.55
20023;BME280;10172;42.054;24.546;2022-10-31T10:41:18;98538.72;;;26.29;39.14
20023;BME280;10172;42.054;24.546;2022-10-31T10:43:44;98531.75;;;26.75;38.27
20023;BME280;10172;42.054;24.546;2022-10-31T10:57:36;98536.25;;;25.20;41.77
20023;BME280;10172;42.054;24.546;2022-10-31T11:02:46;98522.84;;;26.11;39.27
20023;BME280;10172;42.054;24.546;2022-10-31T11:07:59;98523.88;;;26.59;38.64
20023;BME280;10172;42.054;24.546;2022-10-31T11:10:25;98514.28;;;26.97;37.36
20023;BME280;10172;42.054;24.546;2022-10-31T11:13:01;98519.19;;;27.15;36.61
20023;BME280;10172;42.054;24.546;2022-10-31T11:15:28;98523.03;;;27.27;36.32
20023;BME280;10172;42.054;24.546;2022-10-31T11:17:56;98519.97;;;27.02;36.61
20023;BME280;10172;42.054;24.546;2022-10-31T11:20:35;98503.81;;;25.96;37.88
20023;BME280;10172;42.054;24.546;2022-10-31T11:23:05;98511.16;;;26.45;38.11
20023;BME280;10172;42.054;24.546;2022-10-31T11:25:30;98518.50;;;27.41;36.54
20023;BME280;10172;42.054;24.546;2022-10-31T11:28:03;98513.69;;;27.56;36.26
20023;BME280;10172;42.054;24.546;2022-10-31T11:30:31;98508.19;;;25.19;40.34
20023;BME280;10172;42.054;24.546;2022-10-31T11:33:00;98512.41;;;25.22;40.75
20023;BME280;10172;42.054;24.546;2022-10-31T11:35:27;98503.91;;;26.31;39.08
20023;BME280;10172;42.054;24.546;2022-10-31T11:37:56;98498.97;;;26.41;38.50
20023;BME280;10172;42.054;24.546;2022-10-31T11:40:26;98501.09;;;26.45;38.10
20023;BME280;10172;42.054;24.546;2022-10-31T11:42:56;98501.34;;;26.23;38.12
20023;BME280;10172;42.054;24.546;2022-10-31T11:47:51;98491.94;;;25.26;40.11
20023;BME280;10172;42.054;24.546;2022-10-31T11:50:25;98498.13;;;25.49;40.46
20023;BME280;10172;42.054;24.546;2022-10-31T11:52:52;98480.16;;;26.52;38.41
20023;BME280;10172;42.054;24.546;2022-10-31T11:55:39;98495.13;;;27.38;36.55
20023;BME280;10172;42.054;24.546;2022-10-31T11:58:22;98492.13;;;26.51;38.12
20023;BME280;10172;42.054;24.546;2022-10-31T12:00:56;98499.81;;;27.03;36.93
20023;BME280;10172;42.054;24.546;2022-10-31T12:05:51;98492.59;;;27.37;35.20
20023;BME280;10172;42.054;24.546;2022-10-31T12:08:18;98495.28;;;26.55;37.00
20023;BME280;10172;42.054;24.546;2022-10-31T12:11:09;98499.50;;;26.85;36.73
20023;BME280;10172;42.054;24.546;2022-10-31T12:19:42;98498.66;;;27.32;36.43
20023;BME280;10172;42.054;24.546;2022-10-31T12:22:26;98501.28;;;27.53;36.49
20023;BME280;10172;42.054;24.546;2022-10-31T12:25:01;98496.03;;;27.52;36.51
20023;BME280;10172;42.054;24.546;2022-10-31T12:28:08;98502.09;;;27.41;36.39
20023;BME280;10172;42.054;24.546;2022-10-31T12:36:46;98505.06;;;27.46;37.02
20023;BME280;10172;42.054;24.546;2022-10-31T12:41:51;98503.94;;;26.93;37.06
20023;BME280;10172;42.054;24.546;2022-10-31T12:49:48;98507.50;;;27.34;36.40
20023;BME280;10172;42.054;24.546;2022-10-31T12:58:01;98497.84;;;27.38;35.74
20023;BME280;10172;42.054;24.546;2022-10-31T13:00:31;98498.56;;;27.06;36.16
20023;BME280;10172;42.054;24.546;2022-10-31T13:05:49;98501.00;;;27.35;36.32
20023;BME280;10172;42.054;24.546;2022-10-31T13:08:20;98494.97;;;27.53;35.75
20023;BME280;10172;42.054;24.546;2022-10-31T13:10:52;98499.28;;;27.27;36.18
20023;BME280;10172;42.054;24.546;2022-10-31T13:13:47;98492.94;;;27.68;36.01
20023;BME280;10172;42.054;24.546;2022-10-31T13:16:18;98499.88;;;27.16;36.11
20023;BME280;10172;42.054;24.546;2022-10-31T13:18:51;98496.19;;;26.62;37.38
20023;BME280;10172;42.054;24.546;2022-10-31T13:21:35;98495.63;;;27.07;36.69
20023;BME280;10172;42.054;24.546;2022-10-31T13:24:04;98493.13;;;27.12;36.86
20023;BME280;10172;42.054;24.546;2022-10-31T13:26:42;98482.06;;;27.33;37.11
20023;BME280;10172;42.054;24.546;2022-10-31T13:29:11;98481.41;;;26.50;37.86
20023;BME280;10172;42.054;24.546;2022-10-31T13:31:41;98483.88;;;26.45;38.00
20023;BME280;10172;42.054;24.546;2022-10-31T13:34:29;98494.59;;;27.08;37.37
20023;BME280;10172;42.054;24.546;2022-10-31T13:37:00;98491.84;;;26.40;38.00
20023;BME280;10172;42.054;24.546;2022-10-31T13:44:38;98500.25;;;25.53;40.06
20023;BME280;10172;42.054;24.546;2022-10-31T13:47:21;98478.72;;;25.59;39.73
20023;BME280;10172;42.054;24.546;2022-10-31T13:49:48;98482.34;;;25.66;39.77
20023;BME280;10172;42.054;24.546;2022-10-31T13:52:22;98493.50;;;25.92;39.67
20023;BME280;10172;42.054;24.546;2022-10-31T13:54:50;98487.41;;;26.39;39.28
20023;BME280;10172;42.054;24.546;2022-10-31T13:57:43;98491.09;;;26.25;39.34
20023;BME280;10172;42.054;24.546;2022-10-31T14:02:48;98489.41;;;26.02;38.69
20023;BME280;10172;42.054;24.546;2022-10-31T14:05:34;98494.09;;;26.08;38.88
20023;BME280;10172;42.054;24.546;2022-10-31T14:08:02;98482.38;;;26.70;37.41
20023;BME280;10172;42.054;24.546;2022-10-31T14:10:35;98492.56;;;26.83;37.33
20023;BME280;10172;42.054;24.546;2022-10-31T14:15:52;98493.41;;;27.30;36.45
20023;BME280;10172;42.054;24.546;2022-10-31T14:18:31;98494.22;;;26.49;37.54
20023;BME280;10172;42.054;24.546;2022-10-31T14:20:58;98500.31;;;26.24;38.30
20023;BME280;10172;42.054;24.546;2022-10-31T14:26:17;98492.38;;;26.56;37.64
20023;BME280;10172;42.054;24.546;2022-10-31T14:28:43;98496.59;;;26.93;36.66
20023;BME280;10172;42.054;24.546;2022-10-31T14:33:59;98485.47;;;27.36;36.11
20023;BME280;10172;42.054;24.546;2022-10-31T14:39:23;98492.50;;;27.71;36.17
20023;BME280;10172;42.054;24.546;2022-10-31T14:42:12;98487.88;;;27.71;35.89
20023;BME280;10172;42.054;24.546;2022-10-31T14:53:01;98492.91;;;26.18;39.75
20023;BME280;10172;42.054;24.546;2022-10-31T14:55:28;98488.75;;;25.79;41.14
20023;BME280;10172;42.054;24.546;2022-10-31T14:58:02;98498.84;;;25.79;41.63
20023;BME280;10172;42.054;24.546;2022-10-31T15:00:31;98500.25;;;24.88;43.95